sensor_id;sensor_type;location;lat;lon;timestamp;P1;durP1;ratioP1;P2;durP2;ratioP2
1879;SDS011;49285;49.002;8.390;2022-07-23T00:00:39;12.47;;;11.17;;
1879;SDS011;49285;49.002;8.390;2022-07-23T00:03:05;11.13;;;10.10;;
1879;SDS011;49285;49.002;8.390;2022-07-23T00:05:30;10.77;;;9.70;;
1879;SDS011;49285;49.002;8.390;2022-07-23T00:07:56;12.90;;;11.63;;
1879;SDS011;49285;49.002;8.390;2022-07-23T00:10:22;10.53;;;9.63;;
1879;SDS011;49285;49.002;8.390;2022-07-23T00:12:47;11.47;;;10.50;;
1879;SDS011;49285;49.002;8.390;2022-07-23T00:15:13;11.73;;;10.53;;
1879;SDS011;49285;49.002;8.390;2022-07-23T00:17:38;11.43;;;10.40;;
1879;SDS011;49285;49.002;8.390;2022-07-23T00:20:04;11.10;;;10.10;;
1879;SDS011;49285;49.002;8.390;2022-07-23T00:22:30;10.63;;;9.53;;
1879;SDS011;49285;49.002;8.390;2022-07-23T00:24:56;12.03;;;10.97;;
1879;SDS011;49285;49.002;8.390;2022-07-23T00:27:22;11.33;;;10.17;;
1879;SDS011;49285;49.002;8.390;2022-07-23T00:29:48;10.50;;;9.50;;
1879;SDS011;49285;49.002;8.390;2022-07-23T00:32:13;10.17;;;8.80;;
1879;SDS011;49285;49.002;8.390;2022-07-23T00:34:39;10.83;;;9.90;;
1879;SDS011;49285;49.002;8.390;2022-07-23T00:37:05;10.73;;;9.73;;
1879;SDS011;49285;49.002;8.390;2022-07-23T00:39:30;11.10;;;10.10;;
1879;SDS011;49285;49.002;8.390;2022-07-23T00:41:56;10.60;;;9.57;;
1879;SDS011;49285;49.002;8.390;2022-07-23T00:44:25;10.00;;;9.07;;
1879;SDS011;49285;49.002;8.390;2022-07-23T00:46:56;10.80;;;9.70;;
1879;SDS011;49285;49.002;8.390;2022-07-23T00:49:23;10.53;;;9.57;;
1879;SDS011;49285;49.002;8.390;2022-07-23T00:51:51;10.23;;;9.27;;
1879;SDS011;49285;49.002;8.390;2022-07-23T00:54:17;9.77;;;8.77;;
1879;SDS011;49285;49.002;8.390;2022-07-23T00:56:44;9.70;;;8.77;;
1879;SDS011;49285;49.002;8.390;2022-07-23T00:59:10;10.47;;;9.50;;
1879;SDS011;49285;49.002;8.390;2022-07-23T01:01:37;11.50;;;8.60;;
1879;SDS011;49285;49.002;8.390;2022-07-23T01:04:03;9.87;;;9.00;;
1879;SDS011;49285;49.002;8.390;2022-07-23T01:06:28;9.33;;;8.53;;
1879;SDS011;49285;49.002;8.390;2022-07-23T01:08:55;8.40;;;7.60;;
1879;SDS011;49285;49.002;8.390;2022-07-23T01:11:21;9.17;;;8.37;;
1879;SDS011;49285;49.002;8.390;2022-07-23T01:13:48;9.40;;;8.57;;
1879;SDS011;49285;49.002;8.390;2022-07-23T01:16:14;9.77;;;8.87;;
1879;SDS011;49285;49.002;8.390;2022-07-23T01:18:39;8.97;;;8.17;;
1879;SDS011;49285;49.002;8.390;2022-07-23T01:21:05;8.73;;;7.93;;
1879;SDS011;49285;49.002;8.390;2022-07-23T01:23:30;9.40;;;8.60;;
1879;SDS011;49285;49.002;8.390;2022-07-23T01:25:56;8.63;;;7.93;;
1879;SDS011;49285;49.002;8.390;2022-07-23T01:28:22;12.03;;;8.07;;
1879;SDS011;49285;49.002;8.390;2022-07-23T01:30:47;8.73;;;7.93;;
1879;SDS011;49285;49.002;8.390;2022-07-23T01:33:13;9.20;;;8.27;;
1879;SDS011;49285;49.002;8.390;2022-07-23T01:35:39;9.33;;;8.17;;
1879;SDS011;49285;49.002;8.390;2022-07-23T01:38:05;8.93;;;8.03;;
1879;SDS011;49285;49.002;8.390;2022-07-23T01:40:31;10.50;;;8.40;;
1879;SDS011;49285;49.002;8.390;2022-07-23T01:42:56;13.00;;;8.80;;
1879;SDS011;49285;49.002;8.390;2022-07-23T01:45:22;8.23;;;7.53;;
1879;SDS011;49285;49.002;8.390;2022-07-23T01:47:48;10.10;;;8.57;;
1879;SDS011;49285;49.002;8.390;2022-07-23T01:50:14;9.13;;;8.20;;
1879;SDS011;49285;49.002;8.390;2022-07-23T01:52:39;9.83;;;8.80;;
1879;SDS011;49285;49.002;8.390;2022-07-23T01:55:06;8.30;;;7.47;;
1879;SDS011;49285;49.002;8.390;2022-07-23T01:57:33;8.60;;;7.90;;
1879;SDS011;49285;49.002;8.390;2022-07-23T01:59:58;9.23;;;8.33;;
1879;SDS011;49285;49.002;8.390;2022-07-23T02:02:24;8.80;;;8.10;;
1879;SDS011;49285;49.002;8.390;2022-07-23T02:04:50;9.00;;;7.30;;
1879;SDS011;49285;49.002;8.390;2022-07-23T02:07:15;8.10;;;7.40;;
1879;SDS011;49285;49.002;8.390;2022-07-23T02:09:41;8.23;;;6.90;;
1879;SDS011;49285;49.002;8.390;2022-07-23T02:12:07;8.23;;;7.13;;
1879;SDS011;49285;49.002;8.390;2022-07-23T02:14:33;8.40;;;7.60;;
1879;SDS011;49285;49.002;8.390;2022-07-23T02:16:58;7.90;;;7.20;;
1879;SDS011;49285;49.002;8.390;2022-07-23T02:19:24;9.50;;;8.10;;
1879;SDS011;49285;49.002;8.390;2022-07-23T02:21:50;7.93;;;7.17;;
1879;SDS011;49285;49.002;8.390;2022-07-23T02:24:16;9.60;;;8.40;;
1879;SDS011;49285;49.002;8.390;2022-07-23T02:26:42;8.03;;;7.33;;
1879;SDS011;49285;49.002;8.390;2022-07-23T02:29:08;8.67;;;7.77;;
1879;SDS011;49285;49.002;8.390;2022-07-23T02:31:34;8.87;;;7.97;;
1879;SDS011;49285;49.002;8.390;2022-07-23T02:34:00;8.10;;;7.40;;
1879;SDS011;49285;49.002;8.390;2022-07-23T02:36:26;8.17;;;7.30;;
1879;SDS011;49285;49.002;8.390;2022-07-23T02:38:51;7.77;;;7.17;;
1879;SDS011;49285;49.002;8.390;2022-07-23T02:41:17;8.00;;;7.30;;
1879;SDS011;49285;49.002;8.390;2022-07-23T02:43:43;8.47;;;7.57;;
1879;SDS011;49285;49.002;8.390;2022-07-23T02:46:08;7.30;;;6.60;;
1879;SDS011;49285;49.002;8.390;2022-07-23T02:48:34;8.97;;;8.20;;
1879;SDS011;49285;49.002;8.390;2022-07-23T02:50:59;8.80;;;6.97;;
1879;SDS011;49285;49.002;8.390;2022-07-23T02:53:25;7.97;;;7.17;;
1879;SDS011;49285;49.002;8.390;2022-07-23T02:55:51;6.70;;;6.20;;
1879;SDS011;49285;49.002;8.390;2022-07-23T02:58:16;7.10;;;6.50;;
1879;SDS011;49285;49.002;8.390;2022-07-23T03:00:42;9.03;;;7.20;;
1879;SDS011;49285;49.002;8.390;2022-07-23T03:03:08;7.63;;;6.90;;
1879;SDS011;49285;49.002;8.390;2022-07-23T03:05:34;9.23;;;7.07;;
1879;SDS011;49285;49.002;8.390;2022-07-23T03:07:59;7.57;;;6.87;;
1879;SDS011;49285;49.002;8.390;2022-07-23T03:10:25;8.30;;;7.60;;
1879;SDS011;49285;49.002;8.390;2022-07-23T03:12:51;8.83;;;6.13;;
1879;SDS011;49285;49.002;8.390;2022-07-23T03:15:17;7.20;;;6.50;;
1879;SDS011;49285;49.002;8.390;2022-07-23T03:17:42;8.13;;;7.33;;
1879;SDS011;49285;49.002;8.390;2022-07-23T03:20:08;7.20;;;6.60;;
1879;SDS011;49285;49.002;8.390;2022-07-23T03:22:34;8.37;;;6.53;;
1879;SDS011;49285;49.002;8.390;2022-07-23T03:24:59;7.10;;;6.50;;
1879;SDS011;49285;49.002;8.390;2022-07-23T03:27:27;7.43;;;6.60;;
1879;SDS011;49285;49.002;8.390;2022-07-23T03:29:54;7.57;;;6.97;;
1879;SDS011;49285;49.002;8.390;2022-07-23T03:32:21;7.40;;;6.80;;
1879;SDS011;49285;49.002;8.390;2022-07-23T03:34:47;7.30;;;6.60;;
1879;SDS011;49285;49.002;8.390;2022-07-23T03:37:13;7.03;;;6.43;;
1879;SDS011;49285;49.002;8.390;2022-07-23T03:39:39;7.33;;;6.63;;
1879;SDS011;49285;49.002;8.390;2022-07-23T03:42:05;7.80;;;7.07;;
1879;SDS011;49285;49.002;8.390;2022-07-23T03:44:31;7.03;;;6.47;;
1879;SDS011;49285;49.002;8.390;2022-07-23T03:46:57;7.77;;;6.97;;
1879;SDS011;49285;49.002;8.390;2022-07-23T03:49:22;7.10;;;6.50;;
1879;SDS011;49285;49.002;8.390;2022-07-23T03:51:48;10.23;;;7.43;;
1879;SDS011;49285;49.002;8.390;2022-07-23T03:54:14;7.90;;;7.10;;
1879;SDS011;49285;49.002;8.390;2022-07-23T03:56:40;7.03;;;6.30;;
1879;SDS011;49285;49.002;8.390;2022-07-23T03:59:05;7.50;;;6.77;;
1879;SDS011;49285;49.002;8.390;2022-07-23T04:01:31;7.77;;;7.13;;
1879;SDS011;49285;49.002;8.390;2022-07-23T04:03:57;8.10;;;7.40;;
1879;SDS011;49285;49.002;8.390;2022-07-23T04:06:22;7.17;;;6.47;;
1879;SDS011;49285;49.002;8.390;2022-07-23T04:08:48;7.97;;;7.27;;
1879;SDS011;49285;49.002;8.390;2022-07-23T04:11:13;7.93;;;7.07;;
1879;SDS011;49285;49.002;8.390;2022-07-23T04:13:39;7.80;;;7.00;;
1879;SDS011;49285;49.002;8.390;2022-07-23T04:16:05;8.90;;;6.97;;
1879;SDS011;49285;49.002;8.390;2022-07-23T04:18:31;7.80;;;7.10;;
1879;SDS011;49285;49.002;8.390;2022-07-23T04:20:56;9.00;;;6.97;;
1879;SDS011;49285;49.002;8.390;2022-07-23T04:23:22;7.60;;;6.70;;
1879;SDS011;49285;49.002;8.390;2022-07-23T04:25:48;7.90;;;7.20;;
1879;SDS011;49285;49.002;8.390;2022-07-23T04:28:14;8.33;;;7.53;;
1879;SDS011;49285;49.002;8.390;2022-07-23T04:30:39;8.50;;;7.70;;
1879;SDS011;49285;49.002;8.390;2022-07-23T04:33:05;8.20;;;7.40;;
1879;SDS011;49285;49.002;8.390;2022-07-23T04:35:32;7.90;;;7.10;;
1879;SDS011;49285;49.002;8.390;2022-07-23T04:37:58;8.53;;;6.80;;
1879;SDS011;49285;49.002;8.390;2022-07-23T04:40:24;9.57;;;7.33;;
1879;SDS011;49285;49.002;8.390;2022-07-23T04:42:50;7.13;;;6.17;;
1879;SDS011;49285;49.002;8.390;2022-07-23T04:45:16;7.70;;;7.00;;
1879;SDS011;49285;49.002;8.390;2022-07-23T04:47:41;8.17;;;7.30;;
1879;SDS011;49285;49.002;8.390;2022-07-23T04:50:07;7.23;;;6.50;;
1879;SDS011;49285;49.002;8.390;2022-07-23T04:52:33;8.80;;;7.90;;
1879;SDS011;49285;49.002;8.390;2022-07-23T04:54:58;7.90;;;7.10;;
1879;SDS011;49285;49.002;8.390;2022-07-23T04:57:24;7.10;;;6.43;;
1879;SDS011;49285;49.002;8.390;2022-07-23T04:59:49;7.63;;;6.93;;
1879;SDS011;49285;49.002;8.390;2022-07-23T05:02:15;8.40;;;7.60;;
1879;SDS011;49285;49.002;8.390;2022-07-23T05:04:40;8.17;;;7.37;;
1879;SDS011;49285;49.002;8.390;2022-07-23T05:07:06;7.70;;;7.00;;
1879;SDS011;49285;49.002;8.390;2022-07-23T05:09:31;9.30;;;7.70;;
1879;SDS011;49285;49.002;8.390;2022-07-23T05:11:57;10.23;;;7.70;;
1879;SDS011;49285;49.002;8.390;2022-07-23T05:14:23;8.17;;;7.50;;
1879;SDS011;49285;49.002;8.390;2022-07-23T05:16:48;7.80;;;7.10;;
1879;SDS011;49285;49.002;8.390;2022-07-23T05:19:14;8.03;;;7.30;;
1879;SDS011;49285;49.002;8.390;2022-07-23T05:21:39;7.83;;;7.03;;
1879;SDS011;49285;49.002;8.390;2022-07-23T05:24:05;8.23;;;7.53;;
1879;SDS011;49285;49.002;8.390;2022-07-23T05:26:31;7.43;;;6.83;;
1879;SDS011;49285;49.002;8.390;2022-07-23T05:28:57;7.53;;;6.90;;
1879;SDS011;49285;49.002;8.390;2022-07-23T05:31:22;7.23;;;6.63;;
1879;SDS011;49285;49.002;8.390;2022-07-23T05:33:48;7.60;;;6.97;;
1879;SDS011;49285;49.002;8.390;2022-07-23T05:36:13;9.60;;;8.03;;
1879;SDS011;49285;49.002;8.390;2022-07-23T05:38:39;8.43;;;7.63;;
1879;SDS011;49285;49.002;8.390;2022-07-23T05:41:05;8.50;;;7.70;;
1879;SDS011;49285;49.002;8.390;2022-07-23T05:43:30;7.33;;;6.70;;
1879;SDS011;49285;49.002;8.390;2022-07-23T05:45:56;7.73;;;7.13;;
1879;SDS011;49285;49.002;8.390;2022-07-23T05:48:21;7.80;;;7.10;;
1879;SDS011;49285;49.002;8.390;2022-07-23T05:50:47;9.43;;;7.93;;
1879;SDS011;49285;49.002;8.390;2022-07-23T05:53:13;7.80;;;6.73;;
1879;SDS011;49285;49.002;8.390;2022-07-23T05:55:38;7.67;;;6.97;;
1879;SDS011;49285;49.002;8.390;2022-07-23T05:58:04;8.10;;;7.33;;
1879;SDS011;49285;49.002;8.390;2022-07-23T06:00:30;14.40;;;8.90;;
1879;SDS011;49285;49.002;8.390;2022-07-23T06:02:56;8.80;;;7.93;;
1879;SDS011;49285;49.002;8.390;2022-07-23T06:05:21;9.10;;;7.60;;
1879;SDS011;49285;49.002;8.390;2022-07-23T06:07:47;8.03;;;7.20;;
1879;SDS011;49285;49.002;8.390;2022-07-23T06:10:13;9.60;;;8.70;;
1879;SDS011;49285;49.002;8.390;2022-07-23T06:12:39;8.57;;;7.77;;
1879;SDS011;49285;49.002;8.390;2022-07-23T06:15:04;9.03;;;7.63;;
1879;SDS011;49285;49.002;8.390;2022-07-23T06:17:30;9.37;;;7.83;;
1879;SDS011;49285;49.002;8.390;2022-07-23T06:19:56;8.53;;;7.80;;
1879;SDS011;49285;49.002;8.390;2022-07-23T06:22:21;10.30;;;9.17;;
1879;SDS011;49285;49.002;8.390;2022-07-23T06:24:48;8.63;;;7.83;;
1879;SDS011;49285;49.002;8.390;2022-07-23T06:27:14;8.83;;;8.03;;
1879;SDS011;49285;49.002;8.390;2022-07-23T06:29:39;9.53;;;7.07;;
1879;SDS011;49285;49.002;8.390;2022-07-23T06:32:05;11.50;;;8.20;;
1879;SDS011;49285;49.002;8.390;2022-07-23T06:34:32;9.47;;;8.47;;
1879;SDS011;49285;49.002;8.390;2022-07-23T06:36:57;10.37;;;8.10;;
1879;SDS011;49285;49.002;8.390;2022-07-23T06:39:23;9.80;;;8.20;;
1879;SDS011;49285;49.002;8.390;2022-07-23T06:41:49;11.50;;;8.40;;
1879;SDS011;49285;49.002;8.390;2022-07-23T06:44:14;13.67;;;8.40;;
1879;SDS011;49285;49.002;8.390;2022-07-23T06:46:40;8.93;;;8.00;;
1879;SDS011;49285;49.002;8.390;2022-07-23T06:49:06;9.00;;;8.20;;
1879;SDS011;49285;49.002;8.390;2022-07-23T06:51:31;9.10;;;7.97;;
1879;SDS011;49285;49.002;8.390;2022-07-23T06:53:57;9.50;;;8.50;;
1879;SDS011;49285;49.002;8.390;2022-07-23T06:56:23;8.47;;;7.60;;
1879;SDS011;49285;49.002;8.390;2022-07-23T06:58:49;9.30;;;8.40;;
1879;SDS011;49285;49.002;8.390;2022-07-23T07:01:14;10.20;;;9.30;;
1879;SDS011;49285;49.002;8.390;2022-07-23T07:03:40;9.80;;;9.00;;
1879;SDS011;49285;49.002;8.390;2022-07-23T07:06:05;8.90;;;8.10;;
1879;SDS011;49285;49.002;8.390;2022-07-23T07:08:31;9.53;;;8.23;;
1879;SDS011;49285;49.002;8.390;2022-07-23T07:10:57;11.43;;;8.50;;
1879;SDS011;49285;49.002;8.390;2022-07-23T07:13:22;10.00;;;8.60;;
1879;SDS011;49285;49.002;8.390;2022-07-23T07:15:48;7.63;;;6.93;;
1879;SDS011;49285;49.002;8.390;2022-07-23T07:18:13;8.33;;;7.63;;
1879;SDS011;49285;49.002;8.390;2022-07-23T07:20:39;8.40;;;7.60;;
1879;SDS011;49285;49.002;8.390;2022-07-23T07:23:04;8.40;;;7.53;;
1879;SDS011;49285;49.002;8.390;2022-07-23T07:25:30;9.23;;;8.40;;
1879;SDS011;49285;49.002;8.390;2022-07-23T07:27:56;9.40;;;8.50;;
1879;SDS011;49285;49.002;8.390;2022-07-23T07:30:21;9.30;;;8.50;;
1879;SDS011;49285;49.002;8.390;2022-07-23T07:32:47;9.20;;;8.30;;
1879;SDS011;49285;49.002;8.390;2022-07-23T07:35:13;11.50;;;8.53;;
1879;SDS011;49285;49.002;8.390;2022-07-23T07:37:38;9.63;;;8.73;;
1879;SDS011;49285;49.002;8.390;2022-07-23T07:40:04;9.70;;;8.80;;
1879;SDS011;49285;49.002;8.390;2022-07-23T07:42:30;9.80;;;8.70;;
1879;SDS011;49285;49.002;8.390;2022-07-23T07:44:57;9.63;;;8.60;;
1879;SDS011;49285;49.002;8.390;2022-07-23T07:47:23;9.13;;;8.23;;
1879;SDS011;49285;49.002;8.390;2022-07-23T07:49:48;10.97;;;8.57;;
1879;SDS011;49285;49.002;8.390;2022-07-23T07:52:14;9.17;;;8.37;;
1879;SDS011;49285;49.002;8.390;2022-07-23T07:54:39;10.30;;;9.17;;
1879;SDS011;49285;49.002;8.390;2022-07-23T07:57:05;9.20;;;8.30;;
1879;SDS011;49285;49.002;8.390;2022-07-23T07:59:30;8.63;;;7.83;;
1879;SDS011;49285;49.002;8.390;2022-07-23T08:01:56;9.37;;;8.47;;
1879;SDS011;49285;49.002;8.390;2022-07-23T08:04:21;9.90;;;8.90;;
1879;SDS011;49285;49.002;8.390;2022-07-23T08:06:47;12.10;;;9.20;;
1879;SDS011;49285;49.002;8.390;2022-07-23T08:09:12;11.30;;;9.00;;
1879;SDS011;49285;49.002;8.390;2022-07-23T08:11:38;10.00;;;9.00;;
1879;SDS011;49285;49.002;8.390;2022-07-23T08:14:04;10.07;;;9.20;;
1879;SDS011;49285;49.002;8.390;2022-07-23T08:16:29;9.60;;;8.70;;
1879;SDS011;49285;49.002;8.390;2022-07-23T08:18:55;9.73;;;8.73;;
1879;SDS011;49285;49.002;8.390;2022-07-23T08:21:20;10.60;;;9.47;;
1879;SDS011;49285;49.002;8.390;2022-07-23T08:23:46;10.17;;;9.27;;
1879;SDS011;49285;49.002;8.390;2022-07-23T08:26:12;10.30;;;9.23;;
1879;SDS011;49285;49.002;8.390;2022-07-23T08:28:37;9.37;;;8.57;;
1879;SDS011;49285;49.002;8.390;2022-07-23T08:31:03;9.80;;;8.90;;
1879;SDS011;49285;49.002;8.390;2022-07-23T08:33:30;10.50;;;9.13;;
1879;SDS011;49285;49.002;8.390;2022-07-23T08:35:56;9.27;;;8.47;;
1879;SDS011;49285;49.002;8.390;2022-07-23T08:38:22;10.03;;;9.13;;
1879;SDS011;49285;49.002;8.390;2022-07-23T08:40:49;10.30;;;9.40;;
1879;SDS011;49285;49.002;8.390;2022-07-23T08:43:21;9.90;;;8.40;;
1879;SDS011;49285;49.002;8.390;2022-07-23T08:45:49;10.60;;;9.50;;
1879;SDS011;49285;49.002;8.390;2022-07-23T08:48:17;10.40;;;9.03;;
1879;SDS011;49285;49.002;8.390;2022-07-23T08:50:48;9.80;;;8.90;;
1879;SDS011;49285;49.002;8.390;2022-07-23T08:53:19;11.10;;;8.93;;
1879;SDS011;49285;49.002;8.390;2022-07-23T08:55:48;11.40;;;10.23;;
1879;SDS011;49285;49.002;8.390;2022-07-23T08:58:16;10.03;;;9.13;;
1879;SDS011;49285;49.002;8.390;2022-07-23T09:00:43;11.17;;;10.13;;
1879;SDS011;49285;49.002;8.390;2022-07-23T09:03:19;10.30;;;9.30;;
1879;SDS011;49285;49.002;8.390;2022-07-23T09:05:47;9.90;;;8.83;;
1879;SDS011;49285;49.002;8.390;2022-07-23T09:08:16;8.90;;;8.10;;
1879;SDS011;49285;49.002;8.390;2022-07-23T09:13:23;9.53;;;8.67;;
1879;SDS011;49285;49.002;8.390;2022-07-23T09:15:53;10.67;;;9.13;;
1879;SDS011;49285;49.002;8.390;2022-07-23T09:18:30;9.57;;;8.70;;
1879;SDS011;49285;49.002;8.390;2022-07-23T09:24:12;10.17;;;9.27;;
1879;SDS011;49285;49.002;8.390;2022-07-23T09:26:42;10.03;;;8.97;;
1879;SDS011;49285;49.002;8.390;2022-07-23T09:31:45;9.73;;;8.83;;
1879;SDS011;49285;49.002;8.390;2022-07-23T09:34:16;9.60;;;8.80;;
1879;SDS011;49285;49.002;8.390;2022-07-23T09:36:42;10.27;;;9.20;;
1879;SDS011;49285;49.002;8.390;2022-07-23T09:39:09;10.00;;;9.10;;
1879;SDS011;49285;49.002;8.390;2022-07-23T09:41:38;9.30;;;8.40;;
1879;SDS011;49285;49.002;8.390;2022-07-23T09:44:12;10.67;;;9.77;;
1879;SDS011;49285;49.002;8.390;2022-07-23T09:46:43;9.23;;;8.33;;
1879;SDS011;49285;49.002;8.390;2022-07-23T09:49:20;9.17;;;8.20;;
1879;SDS011;49285;49.002;8.390;2022-07-23T09:51:57;11.10;;;9.90;;
1879;SDS011;49285;49.002;8.390;2022-07-23T09:54:26;9.13;;;8.23;;
1879;SDS011;49285;49.002;8.390;2022-07-23T09:56:58;8.50;;;7.80;;
1879;SDS011;49285;49.002;8.390;2022-07-23T09:59:26;8.47;;;7.70;;
1879;SDS011;49285;49.002;8.390;2022-07-23T10:01:55;9.17;;;8.27;;
1879;SDS011;49285;49.002;8.390;2022-07-23T10:04:23;8.90;;;8.20;;
1879;SDS011;49285;49.002;8.390;2022-07-23T10:06:53;11.93;;;10.40;;
1879;SDS011;49285;49.002;8.390;2022-07-23T10:09:27;9.70;;;8.90;;
1879;SDS011;49285;49.002;8.390;2022-07-23T10:11:59;9.77;;;8.77;;
1879;SDS011;49285;49.002;8.390;2022-07-23T10:14:31;9.93;;;8.77;;
1879;SDS011;49285;49.002;8.390;2022-07-23T10:16:59;8.73;;;7.93;;
1879;SDS011;49285;49.002;8.390;2022-07-23T10:19:26;12.23;;;8.60;;
1879;SDS011;49285;49.002;8.390;2022-07-23T10:21:55;9.90;;;8.90;;
1879;SDS011;49285;49.002;8.390;2022-07-23T10:27:26;10.20;;;9.33;;
1879;SDS011;49285;49.002;8.390;2022-07-23T10:30:04;9.50;;;8.70;;
1879;SDS011;49285;49.002;8.390;2022-07-23T10:32:40;9.57;;;8.73;;
1879;SDS011;49285;49.002;8.390;2022-07-23T10:38:00;10.53;;;9.67;;
1879;SDS011;49285;49.002;8.390;2022-07-23T10:40:38;10.07;;;9.27;;
1879;SDS011;49285;49.002;8.390;2022-07-23T10:43:29;9.83;;;8.93;;
1879;SDS011;49285;49.002;8.390;2022-07-23T10:45:55;11.20;;;10.10;;
1879;SDS011;49285;49.002;8.390;2022-07-23T10:48:41;9.83;;;8.93;;
1879;SDS011;49285;49.002;8.390;2022-07-23T10:51:08;9.57;;;8.77;;
1879;SDS011;49285;49.002;8.390;2022-07-23T10:54:16;10.13;;;9.03;;
1879;SDS011;49285;49.002;8.390;2022-07-23T10:59:21;9.10;;;8.30;;
1879;SDS011;49285;49.002;8.390;2022-07-23T11:01:46;8.70;;;8.00;;
1879;SDS011;49285;49.002;8.390;2022-07-23T11:04:12;9.23;;;8.40;;
1879;SDS011;49285;49.002;8.390;2022-07-23T11:17:37;8.50;;;7.60;;
1879;SDS011;49285;49.002;8.390;2022-07-23T11:20:24;8.00;;;7.33;;
1879;SDS011;49285;49.002;8.390;2022-07-23T11:27:54;9.00;;;8.20;;
1879;SDS011;49285;49.002;8.390;2022-07-23T11:32:53;9.73;;;8.83;;
1879;SDS011;49285;49.002;8.390;2022-07-23T11:35:39;8.97;;;8.17;;
1879;SDS011;49285;49.002;8.390;2022-07-23T11:38:27;10.03;;;9.20;;
1879;SDS011;49285;49.002;8.390;2022-07-23T11:40:55;9.27;;;8.40;;
1879;SDS011;49285;49.002;8.390;2022-07-23T11:43:23;9.90;;;9.00;;
1879;SDS011;49285;49.002;8.390;2022-07-23T11:45:50;9.47;;;8.57;;
1879;SDS011;49285;49.002;8.390;2022-07-23T11:50:44;9.90;;;9.00;;
1879;SDS011;49285;49.002;8.390;2022-07-23T11:53:10;10.63;;;9.73;;
1879;SDS011;49285;49.002;8.390;2022-07-23T11:55:35;8.60;;;7.80;;
1879;SDS011;49285;49.002;8.390;2022-07-23T11:58:01;9.40;;;8.50;;
1879;SDS011;49285;49.002;8.390;2022-07-23T12:00:28;10.00;;;9.00;;
1879;SDS011;49285;49.002;8.390;2022-07-23T12:02:58;9.50;;;8.60;;
1879;SDS011;49285;49.002;8.390;2022-07-23T12:05:35;9.80;;;9.00;;
1879;SDS011;49285;49.002;8.390;2022-07-23T12:08:04;9.80;;;8.90;;
1879;SDS011;49285;49.002;8.390;2022-07-23T12:10:35;9.30;;;8.50;;
1879;SDS011;49285;49.002;8.390;2022-07-23T12:13:07;8.37;;;7.73;;
1879;SDS011;49285;49.002;8.390;2022-07-23T12:15:39;9.13;;;8.33;;
1879;SDS011;49285;49.002;8.390;2022-07-23T12:18:07;9.50;;;8.50;;
1879;SDS011;49285;49.002;8.390;2022-07-23T12:20:44;9.13;;;8.33;;
1879;SDS011;49285;49.002;8.390;2022-07-23T12:23:14;9.70;;;9.00;;
1879;SDS011;49285;49.002;8.390;2022-07-23T12:25:42;8.90;;;8.20;;
1879;SDS011;49285;49.002;8.390;2022-07-23T12:28:10;9.27;;;8.57;;
1879;SDS011;49285;49.002;8.390;2022-07-23T12:30:40;9.80;;;9.00;;
1879;SDS011;49285;49.002;8.390;2022-07-23T12:33:06;9.77;;;8.73;;
1879;SDS011;49285;49.002;8.390;2022-07-23T12:35:35;8.87;;;8.17;;
1879;SDS011;49285;49.002;8.390;2022-07-23T12:38:07;8.50;;;7.70;;
1879;SDS011;49285;49.002;8.390;2022-07-23T12:40:35;8.70;;;8.00;;
1879;SDS011;49285;49.002;8.390;2022-07-23T12:43:07;8.57;;;7.60;;
1879;SDS011;49285;49.002;8.390;2022-07-23T12:45:45;10.13;;;8.30;;
1879;SDS011;49285;49.002;8.390;2022-07-23T12:53:23;8.00;;;7.30;;
1879;SDS011;49285;49.002;8.390;2022-07-23T12:56:02;8.80;;;8.10;;
1879;SDS011;49285;49.002;8.390;2022-07-23T13:03:57;9.27;;;8.37;;
1879;SDS011;49285;49.002;8.390;2022-07-23T13:06:24;10.67;;;9.70;;
1879;SDS011;49285;49.002;8.390;2022-07-23T13:08:50;8.50;;;7.80;;
1879;SDS011;49285;49.002;8.390;2022-07-23T13:11:16;9.43;;;8.53;;
1879;SDS011;49285;49.002;8.390;2022-07-23T13:13:41;9.63;;;8.83;;
1879;SDS011;49285;49.002;8.390;2022-07-23T13:16:07;9.50;;;8.70;;
1879;SDS011;49285;49.002;8.390;2022-07-23T13:18:33;8.67;;;7.87;;
1879;SDS011;49285;49.002;8.390;2022-07-23T13:20:58;9.13;;;8.23;;
1879;SDS011;49285;49.002;8.390;2022-07-23T13:23:24;8.80;;;8.13;;
1879;SDS011;49285;49.002;8.390;2022-07-23T13:25:50;8.30;;;7.70;;
1879;SDS011;49285;49.002;8.390;2022-07-23T13:28:17;8.87;;;8.17;;
1879;SDS011;49285;49.002;8.390;2022-07-23T13:30:44;8.00;;;7.30;;
1879;SDS011;49285;49.002;8.390;2022-07-23T13:33:10;9.33;;;8.43;;
1879;SDS011;49285;49.002;8.390;2022-07-23T13:35:36;8.57;;;7.97;;
1879;SDS011;49285;49.002;8.390;2022-07-23T13:38:03;9.63;;;8.50;;
1879;SDS011;49285;49.002;8.390;2022-07-23T13:40:32;8.97;;;8.17;;
1879;SDS011;49285;49.002;8.390;2022-07-23T13:42:59;8.90;;;8.10;;
1879;SDS011;49285;49.002;8.390;2022-07-23T13:45:25;8.30;;;7.70;;
1879;SDS011;49285;49.002;8.390;2022-07-23T13:47:50;8.60;;;7.90;;
1879;SDS011;49285;49.002;8.390;2022-07-23T13:50:16;9.40;;;8.50;;
1879;SDS011;49285;49.002;8.390;2022-07-23T13:52:42;8.80;;;8.00;;
1879;SDS011;49285;49.002;8.390;2022-07-23T13:55:08;8.67;;;8.00;;
1879;SDS011;49285;49.002;8.390;2022-07-23T13:57:34;8.43;;;7.40;;
1879;SDS011;49285;49.002;8.390;2022-07-23T13:59:59;7.47;;;6.80;;
1879;SDS011;49285;49.002;8.390;2022-07-23T14:02:25;9.30;;;8.60;;
1879;SDS011;49285;49.002;8.390;2022-07-23T14:04:51;7.80;;;7.30;;
1879;SDS011;49285;49.002;8.390;2022-07-23T14:07:17;8.60;;;7.80;;
1879;SDS011;49285;49.002;8.390;2022-07-23T14:09:43;8.57;;;7.87;;
1879;SDS011;49285;49.002;8.390;2022-07-23T14:12:09;8.97;;;8.20;;
1879;SDS011;49285;49.002;8.390;2022-07-23T14:14:35;8.57;;;7.77;;
1879;SDS011;49285;49.002;8.390;2022-07-23T14:17:00;8.33;;;7.70;;
1879;SDS011;49285;49.002;8.390;2022-07-23T14:19:26;7.83;;;7.13;;
1879;SDS011;49285;49.002;8.390;2022-07-23T14:21:52;8.60;;;7.90;;
1879;SDS011;49285;49.002;8.390;2022-07-23T14:24:18;8.73;;;7.80;;
1879;SDS011;49285;49.002;8.390;2022-07-23T14:26:43;8.50;;;7.37;;
1879;SDS011;49285;49.002;8.390;2022-07-23T14:29:09;8.90;;;8.10;;
1879;SDS011;49285;49.002;8.390;2022-07-23T14:31:35;9.20;;;8.40;;
1879;SDS011;49285;49.002;8.390;2022-07-23T14:34:00;8.90;;;8.03;;
1879;SDS011;49285;49.002;8.390;2022-07-23T14:36:26;8.43;;;7.73;;
1879;SDS011;49285;49.002;8.390;2022-07-23T14:38:52;7.73;;;7.13;;
1879;SDS011;49285;49.002;8.390;2022-07-23T14:41:18;7.83;;;7.23;;
1879;SDS011;49285;49.002;8.390;2022-07-23T14:43:43;9.50;;;8.63;;
1879;SDS011;49285;49.002;8.390;2022-07-23T14:46:09;9.00;;;8.20;;
1879;SDS011;49285;49.002;8.390;2022-07-23T14:48:36;9.13;;;8.40;;
1879;SDS011;49285;49.002;8.390;2022-07-23T14:51:02;8.87;;;7.67;;
1879;SDS011;49285;49.002;8.390;2022-07-23T14:53:28;7.83;;;7.23;;
1879;SDS011;49285;49.002;8.390;2022-07-23T14:55:53;8.43;;;7.73;;
1879;SDS011;49285;49.002;8.390;2022-07-23T14:58:20;9.00;;;8.30;;
1879;SDS011;49285;49.002;8.390;2022-07-23T15:00:46;8.60;;;7.90;;
1879;SDS011;49285;49.002;8.390;2022-07-23T15:03:11;8.83;;;7.93;;
1879;SDS011;49285;49.002;8.390;2022-07-23T15:05:37;9.07;;;8.37;;
1879;SDS011;49285;49.002;8.390;2022-07-23T15:08:03;9.23;;;8.33;;
1879;SDS011;49285;49.002;8.390;2022-07-23T15:10:29;8.30;;;7.60;;
1879;SDS011;49285;49.002;8.390;2022-07-23T15:12:54;8.70;;;7.90;;
1879;SDS011;49285;49.002;8.390;2022-07-23T15:15:20;8.70;;;8.00;;
1879;SDS011;49285;49.002;8.390;2022-07-23T15:17:46;8.47;;;7.77;;
1879;SDS011;49285;49.002;8.390;2022-07-23T15:20:11;12.60;;;9.40;;
1879;SDS011;49285;49.002;8.390;2022-07-23T15:22:37;7.83;;;7.20;;
1879;SDS011;49285;49.002;8.390;2022-07-23T15:25:03;9.50;;;8.80;;
1879;SDS011;49285;49.002;8.390;2022-07-23T15:27:29;9.27;;;8.57;;
1879;SDS011;49285;49.002;8.390;2022-07-23T15:29:54;8.80;;;8.10;;
1879;SDS011;49285;49.002;8.390;2022-07-23T15:32:20;8.50;;;7.67;;
1879;SDS011;49285;49.002;8.390;2022-07-23T15:34:46;8.80;;;8.10;;
1879;SDS011;49285;49.002;8.390;2022-07-23T15:37:11;9.43;;;8.63;;
1879;SDS011;49285;49.002;8.390;2022-07-23T15:39:37;8.40;;;7.60;;
1879;SDS011;49285;49.002;8.390;2022-07-23T15:42:03;8.90;;;8.20;;
1879;SDS011;49285;49.002;8.390;2022-07-23T15:44:28;9.10;;;8.23;;